Michigan Center, MI

7:48 AM EDT on October 23, 2014 (GMT -0400)
Weather Davis | Change Station
CLOSE
Current Station
Personal Weather Station
Location: Jackson, MI
Elevation: 1008 ft
Nearby Weather Stations
Active Advisory: Dense Fog Advisory

Elev 1008 ft 42.24 °N, 84.25 °W | Updated 4 seconds ago

Fog
Fog
23.9 °F
Feels Like 24 °F
N
0.0
Wind Variable Wind from East
Gusts 0.0 mph

Today
High -- | Low -- °F
--% Chance of Precip.
Yesterday
High -- | Low -- °F
Precip. -- in
7:59 AM 6:43 PM
Waning Crescent, 0% visible
Pressure 30.28 in
Visibility 0.5 miles
Clouds
Windchill 24 °F
Dew Point 22 °F
Humidity 94%
Rainfall 0.00 in
Snow Depth Not available.
UV Not available.
Pollen .60 out of 12
PM2.5 Good
Flu Activity Sporadic
METAR KJXN 231056Z 00000KT 1/2SM FZFG VV001 M02/M03 A3025 RMK AO2 SLP253 I1000 T10221028

More Conditions Fewer Conditions

Pressure 30.28 in
Visibility 0.5 miles
Clouds
Windchill 24 °F
Dew Point 22 °F
Humidity 94%
Rainfall 0.00 in
Snow Depth Not available.
UV Not available.
Pollen .60 out of 12
PM2.5 Good
Flu Activity Sporadic
METAR KJXN 231056Z 00000KT 1/2SM FZFG VV001 M02/M03 A3025 RMK AO2 SLP253 I1000 T10221028

More Conditions Fewer Conditions

10-Day Weather Forecast

Almanac

Astronomy

Oct. 23, 2014 Rise Set
Actual Time 7:59 AM EDT 6:43 PM EDT
Civil Twilight 7:30 AM EDT 7:11 PM EDT
Nautical Twilight 6:58 AM EDT 7:44 PM EDT
Astronomical Twilight 6:25 AM EDT 8:16 PM EDT
Moon 7:37 AM EDT 6:44 PM EDT
Length of Visible Light 11h 40m
Length of Day
10h 43m
Tomorrow will be 2m 40s shorter.
Waning Crescent, 0% of the Moon is Illuminated
Today
Waning Crescent
Oct 23
New
Oct 30
First Quarter
Nov 6
Full
Nov 14
Last Quarter

Today's Extremes

State Highs State Lows

Community

WunderPhotos

Upload Photos

1,764,209 photos uploaded!

Nearby

Air Quality

  Air Quality AQ Index Pollutant
Yesterday Good
PM2.5
Current Good
PM2.5
Thursday Good
PM2.5
Friday Moderate
PM2.5
Saturday Good
PM2.5
Sunday Good
PM2.5
Monday Moderate
PM2.5

Snow Depth

Station Depth Elevation
No new snow has been reported.

Earthquake Activity

City Distance Mag. Time & Date
No recent earthquake activity has been reported nearby.
Minimum magnitude displayed is 2.5.

Coastal Water Temperatures

Place Temperature
No Stations Reporting

Nearby Weather Stations